Time;durP1;ratioP1;P1;durP2;ratioP2;P2;SDS_P1;SDS_P2;PMS_P1;PMS_P2;Temp;Humidity;BMP_temperature;BMP_pressure;BME280_temperature;BME280_humidity;BME280_pressure;Samples;Min_cycle;Max_cycle;Signal;HPM_P1;HPM_P2
2022/07/14 21:04:19;;;;;;;7.05;4.50;;;;;;;23.25;75.09;97762.13;5130534;27;20392;-94
2022/07/14 21:06:50;;;;;;;8.55;3.53;;;;;;;23.37;74.32;97753.41;5104664;28;20115;-94
2022/07/14 21:09:18;;;;;;;3.75;3.40;;;;;;;23.46;73.43;97721.94;5125769;27;20048;-95
2022/07/14 21:11:48;;;;;;;6.82;3.80;;;;;;;23.57;73.34;97708.03;5109210;28;20054;-94
2022/07/14 21:14:16;;;;;;;8.07;3.70;;;;;;;23.64;72.94;97695.53;5121253;28;20047;-95
2022/07/14 21:26:13;;;;;;;5.00;3.22;;;;;;;23.57;70.94;97675.81;5375977;23;20046;-96
2022/07/14 21:32:01;;;;;;;9.57;4.57;;;;;;;23.68;71.23;97686.91;4801846;29;20073;-93
2022/07/14 21:34:29;;;;;;;7.50;3.85;;;;;;;23.76;71.19;97699.41;4835932;29;20054;-94
2022/07/14 21:40:32;;;;;;;8.40;3.60;;;;;;;23.92;70.85;97706.44;4981654;27;20430;-95
2022/07/14 21:42:59;;;;;;;4.68;3.20;;;;;;;23.91;71.18;97694.00;5004497;28;20045;-93
2022/07/14 21:45:28;;;;;;;16.13;4.00;;;;;;;23.92;71.08;97696.50;4938142;28;906865;-94
2022/07/14 21:47:58;;;;;;;7.20;3.33;;;;;;;23.99;70.98;97713.53;5046141;28;20427;-94
2022/07/14 21:51:03;;;;;;;7.95;3.63;;;;;;;23.80;69.83;97708.75;5083041;28;20053;-94
2022/07/14 21:53:31;;;;;;;5.32;3.58;;;;;;;23.78;69.51;97716.16;5045184;28;20091;-94
2022/07/14 21:56:01;;;;;;;5.90;3.63;;;;;;;23.80;69.80;97713.28;4935652;28;589094;-93
2022/07/14 21:59:07;;;;;;;7.82;3.60;;;;;;;23.83;70.18;97699.47;5057093;28;20753;-95
2022/07/14 22:01:38;;;;;;;8.98;3.40;;;;;;;23.89;70.35;97714.88;5101738;28;20049;-96
2022/07/14 22:04:07;;;;;;;5.75;3.35;;;;;;;23.85;70.59;97694.78;5085549;28;20067;-95
2022/07/14 22:06:36;;;;;;;10.23;3.47;;;;;;;23.90;70.30;97695.88;5085660;28;20115;-94
2022/07/14 22:09:18;;;;;;;4.75;3.45;;;;;;;23.83;70.41;97692.28;5083448;28;20040;-94
2022/07/14 22:11:50;;;;;;;5.32;3.53;;;;;;;23.89;70.46;97696.88;5075647;28;20059;-95
2022/07/14 22:18:58;;;;;;;6.43;3.33;;;;;;;23.81;70.61;97666.63;4962675;29;20059;-95
2022/07/14 22:21:27;;;;;;;6.65;3.33;;;;;;;23.86;70.43;97697.28;4930760;29;20123;-93
2022/07/14 22:23:55;;;;;;;6.93;2.92;;;;;;;23.86;70.37;97699.97;4961980;29;20043;-94
2022/07/14 22:29:30;;;;;;;8.45;3.38;;;;;;;23.83;70.23;97665.41;4960654;28;20051;-94
2022/07/14 22:32:15;;;;;;;4.90;3.03;;;;;;;23.80;70.61;97636.22;4960197;29;20069;-94
2022/07/14 22:35:19;;;;;;;8.82;2.75;;;;;;;23.77;70.38;97652.72;4946337;29;20142;-93
2022/07/14 22:38:13;;;;;;;5.38;2.80;;;;;;;23.77;70.70;97662.66;4959568;28;20103;-94
2022/07/14 22:44:18;;;;;;;6.75;2.72;;;;;;;23.77;70.53;97676.91;4864968;29;20117;-94
2022/07/14 22:46:47;;;;;;;5.35;3.38;;;;;;;23.75;70.46;97678.97;4866310;29;20148;-94
2022/07/14 22:49:25;;;;;;;5.93;3.28;;;;;;;23.72;70.78;97671.28;4866087;29;20050;-94
2022/07/14 22:52:01;;;;;;;9.13;3.63;;;;;;;23.75;70.64;97684.31;4865380;29;20059;-94
2022/07/14 22:57:16;;;;;;;4.75;3.40;;;;;;;23.74;70.47;97671.09;5018762;28;20071;-95
2022/07/14 22:59:48;;;;;;;3.72;2.75;;;;;;;23.71;70.50;97664.25;5035551;28;20069;-95
2022/07/14 23:02:43;;;;;;;4.68;2.72;;;;;;;23.74;70.76;97661.16;5019904;28;20145;-94
2022/07/14 23:05:14;;;;;;;3.45;3.00;;;;;;;23.75;70.89;97664.69;5019009;28;20088;-94
2022/07/14 23:07:47;;;;;;;5.60;2.72;;;;;;;23.73;70.85;97664.88;5018828;28;20050;-93
2022/07/14 23:10:17;;;;;;;4.65;2.92;;;;;;;23.74;70.60;97653.09;5004767;28;20056;-95
2022/07/14 23:12:45;;;;;;;3.58;3.05;;;;;;;23.68;70.89;97648.50;5021337;28;20049;-95
2022/07/14 23:15:34;;;;;;;3.60;2.65;;;;;;;23.70;70.86;97659.06;4988346;28;20076;-95
2022/07/14 23:18:08;;;;;;;3.20;2.90;;;;;;;23.68;71.06;97658.41;5005484;28;20141;-95
2022/07/14 23:20:39;;;;;;;3.45;2.50;;;;;;;23.68;70.99;97668.09;5076039;28;20497;-93
2022/07/14 23:23:13;;;;;;;5.32;2.88;;;;;;;23.71;70.80;97666.94;5065497;28;20048;-94
2022/07/14 23:25:44;;;;;;;6.03;3.20;;;;;;;23.71;70.97;97668.78;5065291;28;20048;-94
2022/07/14 23:28:12;;;;;;;7.45;2.85;;;;;;;23.71;71.06;97676.81;5080909;28;20399;-95
2022/07/14 23:30:40;;;;;;;3.45;2.58;;;;;;;23.69;70.82;97671.63;5064628;28;20048;-94
2022/07/14 23:33:14;;;;;;;2.88;2.63;;;;;;;23.70;70.84;97681.34;5067236;28;20048;-96
2022/07/14 23:35:42;;;;;;;3.60;2.35;;;;;;;23.68;70.92;97678.03;5102025;28;20144;-93
2022/07/14 23:38:12;;;;;;;4.13;2.67;;;;;;;23.68;70.85;97689.59;5068579;28;20044;-96
2022/07/14 23:40:40;;;;;;;3.03;2.67;;;;;;;23.66;71.16;97679.25;5069126;28;20057;-93
2022/07/14 23:43:08;;;;;;;3.90;2.80;;;;;;;23.68;71.04;97697.66;5084826;28;20062;-94
2022/07/14 23:45:42;;;;;;;4.60;3.00;;;;;;;23.68;71.02;97694.16;5101711;28;20113;-94
2022/07/14 23:48:12;;;;;;;2.70;2.50;;;;;;;23.68;71.13;97690.63;5067644;28;20080;-93
2022/07/14 23:50:41;;;;;;;3.22;2.72;;;;;;;23.67;71.05;97692.47;5067807;28;20098;-94
2022/07/14 23:53:11;;;;;;;2.78;2.50;;;;;;;23.66;71.10;97688.13;5068602;28;20055;-95
2022/07/14 23:55:39;;;;;;;2.60;2.38;;;;;;;23.64;71.09;97687.47;5084931;28;20036;-95
2022/07/14 23:58:07;;;;;;;2.67;2.47;;;;;;;23.66;71.08;97690.81;5068058;28;20099;-95
